createdAt,value
2022-08-18T00:01:47.397Z,13.30
2022-08-18T00:04:35.049Z,13.20
2022-08-18T00:07:01.083Z,13.30
2022-08-18T00:09:32.014Z,13.10
2022-08-18T00:12:00.289Z,13.00
2022-08-18T00:14:26.911Z,13.00
2022-08-18T00:16:53.895Z,12.80
2022-08-18T00:19:46.894Z,12.70
2022-08-18T00:22:09.217Z,12.90
2022-08-18T00:24:48.221Z,13.00
2022-08-18T00:27:21.585Z,13.10
2022-08-18T00:29:48.954Z,12.90
2022-08-18T00:32:18.460Z,12.80
2022-08-18T00:34:45.185Z,12.80
2022-08-18T00:37:12.093Z,12.70
2022-08-18T00:39:39.827Z,12.60
2022-08-18T00:42:28.823Z,12.70
2022-08-18T00:44:58.462Z,12.70
2022-08-18T00:47:33.157Z,12.70
2022-08-18T00:50:14.824Z,12.70
2022-08-18T00:52:43.859Z,12.50
2022-08-18T00:55:11.055Z,12.40
2022-08-18T00:57:37.683Z,12.50
2022-08-18T01:00:11.923Z,12.50
2022-08-18T01:02:42.329Z,12.40
2022-08-18T01:05:14.296Z,12.20
2022-08-18T01:07:48.202Z,12.20
2022-08-18T01:10:17.914Z,12.20
2022-08-18T01:12:46.875Z,12.10
2022-08-18T01:15:29.292Z,12.30
2022-08-18T01:18:22.662Z,12.30
2022-08-18T01:21:24.235Z,12.30
2022-08-18T01:23:51.692Z,12.30
2022-08-18T01:26:18.434Z,12.10
2022-08-18T01:28:46.361Z,12.10
2022-08-18T01:31:13.741Z,12.10
2022-08-18T01:33:42.137Z,12.20
2022-08-18T01:36:20.805Z,12.10
2022-08-18T01:38:50.190Z,11.90
2022-08-18T01:41:28.707Z,11.90
2022-08-18T01:43:56.900Z,11.90
2022-08-18T01:46:23.549Z,11.80
2022-08-18T01:48:50.177Z,11.90
2022-08-18T01:51:17.796Z,11.80
2022-08-18T01:53:45.018Z,11.80
2022-08-18T01:56:13.047Z,11.80
2022-08-18T01:58:39.676Z,11.80
2022-08-18T02:01:06.357Z,11.80
2022-08-18T02:03:37.341Z,11.70
2022-08-18T02:06:05.674Z,11.70
2022-08-18T02:08:32.604Z,11.70
2022-08-18T02:11:00.189Z,11.50
2022-08-18T02:13:27.067Z,11.40
2022-08-18T02:15:53.793Z,11.60
2022-08-18T02:18:47.851Z,11.50
2022-08-18T02:21:19.293Z,11.60
2022-08-18T02:23:53.027Z,11.70
2022-08-18T02:26:20.634Z,11.60
2022-08-18T02:28:47.293Z,11.60
2022-08-18T02:31:18.947Z,11.50
2022-08-18T02:33:51.848Z,11.50
2022-08-18T02:36:19.836Z,11.40
2022-08-18T02:38:54.809Z,11.40
2022-08-18T02:41:29.301Z,11.40
2022-08-18T02:43:56.873Z,11.40
2022-08-18T02:46:23.674Z,11.50
2022-08-18T02:48:56.758Z,11.50
2022-08-18T02:51:23.521Z,11.40
2022-08-18T02:53:52.463Z,11.40
2022-08-18T02:56:32.974Z,11.40
2022-08-18T02:59:10.243Z,11.50
2022-08-18T03:01:39.430Z,11.40
2022-08-18T03:04:07.971Z,11.50
2022-08-18T03:06:36.500Z,11.10
2022-08-18T03:09:04.422Z,10.90
2022-08-18T03:11:31.139Z,10.90
2022-08-18T03:13:57.934Z,11.00
2022-08-18T03:16:24.655Z,11.00
2022-08-18T03:18:51.799Z,11.00
2022-08-18T03:21:21.642Z,11.00
2022-08-18T03:24:00.771Z,10.90
2022-08-18T03:26:28.647Z,11.00
2022-08-18T03:28:55.392Z,11.00
2022-08-18T03:31:23.166Z,11.00
2022-08-18T03:33:51.506Z,10.90
2022-08-18T03:36:20.295Z,11.00
2022-08-18T03:38:47.526Z,10.90
2022-08-18T04:10:19.223Z,10.70
2022-08-18T04:12:46.637Z,10.60
2022-08-18T04:15:13.351Z,10.70
2022-08-18T04:17:56.337Z,10.70
2022-08-18T04:20:27.078Z,10.80
2022-08-18T04:22:54.332Z,10.90
2022-08-18T04:25:21.758Z,10.90
2022-08-18T04:27:48.480Z,10.90
2022-08-18T04:30:15.168Z,10.70
2022-08-18T04:32:43.413Z,10.70
2022-08-18T04:35:13.658Z,10.80
2022-08-18T04:37:41.915Z,10.90
2022-08-18T04:40:09.384Z,11.00
2022-08-18T04:42:36.257Z,11.10
2022-08-18T04:45:10.406Z,11.20
2022-08-18T04:47:41.744Z,11.20
2022-08-18T04:50:08.985Z,11.20
2022-08-18T04:52:54.086Z,11.20
2022-08-18T04:55:20.725Z,11.30
2022-08-18T04:57:47.398Z,11.40
2022-08-18T05:00:14.378Z,11.50
2022-08-18T05:02:41.456Z,11.50
2022-08-18T05:05:08.523Z,11.50
2022-08-18T05:07:35.220Z,11.50
2022-08-18T05:10:01.905Z,11.40
2022-08-18T05:12:28.872Z,11.40
2022-08-18T05:14:57.191Z,11.40
2022-08-18T05:17:29.108Z,11.40
2022-08-18T05:19:58.716Z,11.50
2022-08-18T05:22:28.664Z,11.60
2022-08-18T05:24:58.132Z,11.70
2022-08-18T05:27:24.787Z,11.70
2022-08-18T05:29:51.889Z,11.80
2022-08-18T05:32:41.099Z,11.80
2022-08-18T05:35:07.620Z,11.80
2022-08-18T05:38:19.353Z,11.60
2022-08-18T05:40:46.260Z,11.50
2022-08-18T05:43:13.283Z,11.40
2022-08-18T05:45:40.590Z,11.50
2022-08-18T05:48:07.229Z,11.60
2022-08-18T05:50:34.968Z,11.70
2022-08-18T05:53:13.310Z,11.80
2022-08-18T05:56:18.607Z,11.80
2022-08-18T05:58:49.169Z,11.70
2022-08-18T06:01:38.814Z,11.80
2022-08-18T06:04:17.726Z,12.00
2022-08-18T06:06:47.924Z,12.10
2022-08-18T06:09:18.083Z,12.10
2022-08-18T06:11:44.756Z,12.00
2022-08-18T06:14:11.513Z,11.90
2022-08-18T06:17:07.432Z,11.80
2022-08-18T06:19:49.501Z,12.00
2022-08-18T06:22:27.060Z,12.10
2022-08-18T06:25:06.889Z,12.30
2022-08-18T06:27:55.953Z,12.10
2022-08-18T06:30:41.501Z,12.00
2022-08-18T06:33:31.642Z,12.00
2022-08-18T06:36:18.706Z,12.20
2022-08-18T06:39:12.583Z,12.10
2022-08-18T06:41:48.950Z,12.10
2022-08-18T06:44:42.479Z,12.10
2022-08-18T06:47:09.086Z,12.10
2022-08-18T06:49:48.516Z,12.20
2022-08-18T06:52:38.330Z,12.40
2022-08-18T06:55:11.353Z,12.40
2022-08-18T06:57:40.057Z,12.40
2022-08-18T07:00:18.972Z,12.40
2022-08-18T07:03:01.261Z,12.40
2022-08-18T07:05:29.569Z,12.50
2022-08-18T07:08:15.828Z,12.50
2022-08-18T07:10:47.104Z,12.60
2022-08-18T07:13:21.318Z,12.60
2022-08-18T07:15:48.464Z,12.70
2022-08-18T07:18:25.319Z,12.80
2022-08-18T07:21:01.433Z,12.80
2022-08-18T07:23:33.988Z,13.00
2022-08-18T07:26:15.662Z,13.00
2022-08-18T07:28:50.661Z,13.10
2022-08-18T07:31:27.081Z,13.10
2022-08-18T07:34:05.698Z,13.20
2022-08-18T07:36:37.028Z,13.10
2022-08-18T07:39:09.343Z,13.10
2022-08-18T07:41:45.189Z,13.20
2022-08-18T07:44:20.256Z,13.30
2022-08-18T07:47:03.754Z,13.40
2022-08-18T07:49:35.627Z,13.40
2022-08-18T07:52:04.576Z,13.50
2022-08-18T07:54:50.377Z,13.50
2022-08-18T07:57:25.330Z,13.50
2022-08-18T08:00:01.877Z,13.60
2022-08-18T08:02:35.406Z,13.70
2022-08-18T08:05:04.998Z,13.80
2022-08-18T08:07:56.253Z,13.80
2022-08-18T08:10:41.843Z,13.70
2022-08-18T08:13:13.048Z,13.80
2022-08-18T08:16:16.801Z,13.80
2022-08-18T08:18:59.657Z,13.90
2022-08-18T08:21:28.670Z,14.10
2022-08-18T08:23:56.169Z,14.20
2022-08-18T08:26:37.932Z,14.40
2022-08-18T08:29:33.089Z,14.50
2022-08-18T08:32:03.030Z,14.70
2022-08-18T08:34:49.477Z,14.90
2022-08-18T08:37:44.473Z,15.30
2022-08-18T08:41:03.536Z,15.80
2022-08-18T08:43:32.462Z,16.20
2022-08-18T08:46:06.777Z,16.60
2022-08-18T08:48:36.465Z,16.60
2022-08-18T08:51:42.464Z,16.90
2022-08-18T08:54:23.465Z,17.10
2022-08-18T08:56:51.056Z,17.30
2022-08-18T08:59:19.226Z,17.50
2022-08-18T09:01:52.057Z,17.60
2022-08-18T09:04:36.325Z,17.70
2022-08-18T09:07:21.093Z,17.90
2022-08-18T09:09:51.876Z,17.80
2022-08-18T09:12:33.436Z,17.80
2022-08-18T09:15:18.615Z,17.80
2022-08-18T09:17:50.604Z,17.70
2022-08-18T09:20:51.238Z,17.90
2022-08-18T09:23:27.605Z,17.80
2022-08-18T09:25:56.024Z,18.00
2022-08-18T09:28:40.221Z,18.30
2022-08-18T09:31:08.702Z,18.40
2022-08-18T09:33:44.390Z,18.40
2022-08-18T09:36:32.819Z,18.50
2022-08-18T09:39:50.274Z,18.40
2022-08-18T09:49:47.692Z,17.70
2022-08-18T09:52:21.037Z,17.50
2022-08-18T09:54:59.988Z,17.80
2022-08-18T09:57:41.294Z,18.20
2022-08-18T10:00:29.700Z,18.30
2022-08-18T10:02:57.815Z,18.00
2022-08-18T10:05:31.031Z,17.90
2022-08-18T10:08:06.551Z,18.00
2022-08-18T10:11:16.522Z,17.80
2022-08-18T10:13:54.408Z,17.90
2022-08-18T10:16:23.736Z,18.20
2022-08-18T10:18:58.760Z,18.40
2022-08-18T10:21:31.576Z,18.20
2022-08-18T10:24:35.078Z,18.20
2022-08-18T10:27:08.797Z,18.20
2022-08-18T10:29:41.658Z,18.10
2022-08-18T10:32:08.315Z,18.40
2022-08-18T10:34:51.743Z,18.50
2022-08-18T10:37:26.336Z,18.60
2022-08-18T10:39:59.058Z,18.50
2022-08-18T10:45:34.571Z,19.00
2022-08-18T10:48:16.623Z,19.30
2022-08-18T10:51:07.258Z,19.40
2022-08-18T10:53:58.894Z,19.00
2022-08-18T10:56:43.850Z,19.00
2022-08-18T10:59:30.581Z,19.00
2022-08-18T11:02:44.038Z,19.90
2022-08-18T11:05:11.873Z,20.10
2022-08-18T11:07:42.894Z,20.00
2022-08-18T11:13:30.711Z,20.40
2022-08-18T11:16:13.688Z,19.70
2022-08-18T11:18:44.365Z,19.80
2022-08-18T11:21:33.041Z,20.20
2022-08-18T11:24:10.213Z,20.40
2022-08-18T11:26:59.023Z,20.50
2022-08-18T11:29:27.122Z,19.60
2022-08-18T11:31:59.626Z,20.10
2022-08-18T11:34:53.078Z,20.40
2022-08-18T11:37:51.226Z,20.60
2022-08-18T11:41:09.716Z,20.20
2022-08-18T11:43:30.029Z,20.20
2022-08-18T11:46:30.433Z,20.20
2022-08-18T11:48:58.205Z,19.30
2022-08-18T11:51:25.429Z,19.90
2022-08-18T11:54:00.793Z,20.30
2022-08-18T11:56:36.091Z,20.40
2022-08-18T11:59:35.054Z,20.40
2022-08-18T12:02:19.358Z,20.60
2022-08-18T12:04:53.298Z,21.00
2022-08-18T12:07:32.101Z,20.80
2022-08-18T12:10:26.102Z,20.10
2022-08-18T12:12:53.778Z,20.80
2022-08-18T12:15:24.713Z,20.90
2022-08-18T12:17:52.591Z,20.80
2022-08-18T12:20:19.904Z,20.70
2022-08-18T12:22:46.769Z,20.60
2022-08-18T12:25:15.109Z,20.20
2022-08-18T12:27:51.267Z,20.40
2022-08-18T12:30:19.021Z,20.90
2022-08-18T12:33:00.891Z,20.70
2022-08-18T12:35:32.628Z,21.10
2022-08-18T12:38:03.333Z,20.80
2022-08-18T12:40:38.268Z,20.80
2022-08-18T12:43:05.945Z,20.80
2022-08-18T12:45:32.760Z,20.90
2022-08-18T12:48:02.370Z,20.20
2022-08-18T12:50:34.161Z,20.40
2022-08-18T12:53:04.458Z,20.80
2022-08-18T12:55:35.468Z,21.20
2022-08-18T12:58:05.217Z,21.40
2022-08-18T13:00:32.554Z,21.10
2022-08-18T13:02:59.279Z,20.80
2022-08-18T13:05:29.633Z,20.80
2022-08-18T13:07:58.162Z,20.90
2022-08-18T13:10:45.726Z,21.10
2022-08-18T13:13:11.570Z,20.50
2022-08-18T13:15:38.325Z,20.00
2022-08-18T13:18:05.246Z,20.00
2022-08-18T13:20:31.927Z,20.80
2022-08-18T13:22:58.636Z,21.30
2022-08-18T13:25:32.846Z,21.40
2022-08-18T13:28:06.080Z,21.60
2022-08-18T13:30:33.113Z,21.30
2022-08-18T13:33:05.302Z,20.80
2022-08-18T13:35:52.386Z,21.10
2022-08-18T13:38:27.108Z,21.10
2022-08-18T13:40:57.696Z,21.10
2022-08-18T13:43:30.776Z,21.40
2022-08-18T13:45:57.418Z,21.90
2022-08-18T13:48:25.341Z,21.50
2022-08-18T13:50:56.334Z,21.80
2022-08-18T13:53:23.649Z,22.10
2022-08-18T13:55:51.598Z,21.80
2022-08-18T13:58:20.853Z,21.70
2022-08-18T14:00:51.547Z,21.70
2022-08-18T14:03:20.590Z,21.70
2022-08-18T14:06:02.889Z,21.40
2022-08-18T14:08:33.878Z,21.60
2022-08-18T14:11:02.245Z,21.70
2022-08-18T14:13:29.034Z,21.80
2022-08-18T14:16:05.240Z,22.20
2022-08-18T14:18:31.861Z,22.20
2022-08-18T14:21:16.949Z,21.80
2022-08-18T14:24:10.736Z,21.90
2022-08-18T14:26:50.263Z,22.00
2022-08-18T14:29:17.645Z,22.10
2022-08-18T14:32:05.194Z,22.50
2022-08-18T14:34:31.876Z,22.60
2022-08-18T14:36:58.701Z,22.00
2022-08-18T14:39:25.653Z,22.20
2022-08-18T14:41:55.958Z,22.40
2022-08-18T14:44:24.258Z,22.20
2022-08-18T14:46:52.333Z,22.20
2022-08-18T14:49:28.159Z,22.60
2022-08-18T14:51:56.059Z,22.30
2022-08-18T14:54:23.667Z,22.90
2022-08-18T14:56:55.082Z,22.80
2022-08-18T14:59:23.181Z,22.70
2022-08-18T15:01:49.927Z,22.90
2022-08-18T15:04:19.018Z,23.10
2022-08-18T15:06:55.928Z,22.60
2022-08-18T15:09:26.808Z,22.90
2022-08-18T15:11:55.884Z,23.10
2022-08-18T15:14:32.777Z,22.90
2022-08-18T15:17:13.255Z,22.90
2022-08-18T15:19:58.538Z,22.90
2022-08-18T15:22:45.782Z,23.10
2022-08-18T15:25:30.883Z,24.70
2022-08-18T15:27:58.911Z,25.30
2022-08-18T15:30:25.663Z,25.20
2022-08-18T15:32:53.798Z,24.00
2022-08-18T15:35:20.764Z,23.80
2022-08-18T15:37:48.271Z,23.70
2022-08-18T15:40:31.134Z,23.40
2022-08-18T15:43:06.752Z,24.50
2022-08-18T15:45:43.312Z,24.50
2022-08-18T15:48:18.808Z,24.50
2022-08-18T15:50:51.247Z,26.10
2022-08-18T15:53:29.981Z,26.60
2022-08-18T15:55:57.062Z,25.70
2022-08-18T15:58:26.899Z,26.70
2022-08-18T16:00:56.190Z,25.60
2022-08-18T16:03:25.593Z,25.90
2022-08-18T16:05:54.465Z,25.40
2022-08-18T16:08:22.219Z,25.40
2022-08-18T16:10:49.010Z,26.00
2022-08-18T16:13:15.697Z,25.70
2022-08-18T16:15:46.470Z,26.20
2022-08-18T16:18:13.457Z,26.00
2022-08-18T16:20:40.217Z,25.60
2022-08-18T16:23:07.482Z,25.40
2022-08-18T16:25:34.277Z,24.70
2022-08-18T16:28:01.155Z,25.60
2022-08-18T16:30:28.131Z,26.20
2022-08-18T16:32:54.980Z,24.90
2022-08-18T16:35:23.276Z,24.80
2022-08-18T16:37:49.953Z,25.20
2022-08-18T16:40:17.715Z,25.00
2022-08-18T16:42:44.440Z,24.30
2022-08-18T16:45:11.275Z,24.30
2022-08-18T16:47:40.491Z,23.60
2022-08-18T16:50:12.037Z,24.00
2022-08-18T16:52:39.099Z,23.90
2022-08-18T16:55:06.092Z,24.10
2022-08-18T16:57:55.469Z,23.20
2022-08-18T17:00:41.933Z,22.90
2022-08-18T17:03:27.401Z,22.80
2022-08-18T17:06:07.814Z,22.60
2022-08-18T17:08:34.527Z,22.20
2022-08-18T17:11:13.766Z,22.00
2022-08-18T17:13:41.126Z,22.00
2022-08-18T17:16:08.325Z,21.80
2022-08-18T17:18:36.037Z,21.70
2022-08-18T17:21:06.757Z,21.70
2022-08-18T17:23:33.510Z,21.60
2022-08-18T17:26:00.607Z,21.50
2022-08-18T17:28:50.505Z,21.40
2022-08-18T17:31:21.151Z,21.40
2022-08-18T17:33:47.864Z,21.40
2022-08-18T17:36:23.341Z,21.20
2022-08-18T17:38:54.180Z,21.10
2022-08-18T17:41:21.197Z,20.90
2022-08-18T17:43:48.168Z,20.80
2022-08-18T17:46:23.596Z,20.60
2022-08-18T17:48:55.513Z,20.60
2022-08-18T17:51:37.465Z,20.30
2022-08-18T17:54:23.329Z,20.30
2022-08-18T17:56:54.734Z,20.20
2022-08-18T17:59:51.127Z,20.10
2022-08-18T18:02:29.838Z,19.90
2022-08-18T18:05:07.127Z,19.90
2022-08-18T18:07:54.647Z,19.70
2022-08-18T18:10:40.195Z,19.60
2022-08-18T18:13:25.547Z,19.50
2022-08-18T18:15:54.377Z,19.50
2022-08-18T18:18:24.400Z,19.50
2022-08-18T18:21:17.437Z,19.20
2022-08-18T18:23:49.532Z,19.30
2022-08-18T18:26:30.095Z,19.10
2022-08-18T18:29:14.382Z,18.90
2022-08-18T18:31:42.257Z,19.00
2022-08-18T18:34:30.492Z,18.80
2022-08-18T18:36:57.435Z,18.70
2022-08-18T18:39:33.125Z,18.60
2022-08-18T18:42:17.541Z,18.50
2022-08-18T18:44:56.206Z,18.40
2022-08-18T18:47:49.773Z,18.30
2022-08-18T18:50:53.103Z,18.00
2022-08-18T18:53:44.453Z,18.00
2022-08-18T18:56:36.306Z,17.80
2022-08-18T18:59:02.903Z,17.70
2022-08-18T19:01:38.936Z,17.50
2022-08-18T19:04:15.904Z,17.40
2022-08-18T19:06:48.419Z,17.30
2022-08-18T19:09:23.139Z,17.20
2022-08-18T19:12:05.164Z,17.30
2022-08-18T19:14:38.013Z,17.20
2022-08-18T19:17:13.378Z,17.00
2022-08-18T19:19:48.455Z,17.00
2022-08-18T19:22:24.784Z,16.80
2022-08-18T19:25:14.691Z,16.60
2022-08-18T19:27:49.774Z,16.50
2022-08-18T19:30:16.761Z,16.50
2022-08-18T19:32:46.093Z,16.40
2022-08-18T19:35:19.527Z,16.30
2022-08-18T19:38:01.890Z,16.30
2022-08-18T19:41:05.486Z,16.30
2022-08-18T19:43:38.576Z,16.20
2022-08-18T19:46:23.082Z,16.20
2022-08-18T19:49:00.645Z,15.90
2022-08-18T19:51:33.513Z,15.80
2022-08-18T19:54:27.805Z,15.90
2022-08-18T19:57:08.590Z,15.90
2022-08-18T19:59:42.407Z,15.70
2022-08-18T20:02:35.011Z,15.70
2022-08-18T20:05:13.551Z,15.60
2022-08-18T20:07:47.096Z,15.60
2022-08-18T20:10:30.918Z,15.50
2022-08-18T20:13:23.596Z,15.40
2022-08-18T20:16:13.353Z,15.30
2022-08-18T20:18:44.831Z,15.30
2022-08-18T20:21:22.956Z,15.40
2022-08-18T20:24:07.267Z,15.30
2022-08-18T20:26:38.082Z,15.10
2022-08-18T20:29:05.893Z,15.10
2022-08-18T20:31:49.049Z,15.10
2022-08-18T20:34:17.061Z,15.00
2022-08-18T20:36:44.496Z,14.90
2022-08-18T20:39:54.812Z,14.90
2022-08-18T20:42:21.479Z,14.90
2022-08-18T20:44:48.100Z,14.70
2022-08-18T20:47:23.698Z,14.70
2022-08-18T20:50:12.484Z,14.80
2022-08-18T20:53:01.138Z,14.60
2022-08-18T20:55:45.706Z,14.50
2022-08-18T20:58:17.357Z,14.60
2022-08-18T21:00:46.105Z,14.70
2022-08-18T21:03:13.878Z,14.50
2022-08-18T21:05:43.598Z,14.40
2022-08-18T21:08:16.412Z,14.40
2022-08-18T21:10:54.177Z,14.50
2022-08-18T21:13:41.928Z,14.30
2022-08-18T21:16:09.611Z,14.30
2022-08-18T21:18:36.438Z,14.30
2022-08-18T21:21:05.183Z,14.20
2022-08-18T21:23:37.584Z,14.20
2022-08-18T21:26:13.895Z,14.20
2022-08-18T21:28:42.521Z,14.10
2022-08-18T21:31:44.213Z,14.10
2022-08-18T21:34:11.450Z,14.10
2022-08-18T21:36:39.607Z,14.00
2022-08-18T21:39:16.152Z,14.00
2022-08-18T21:41:49.380Z,14.00
2022-08-18T21:44:19.810Z,13.90
2022-08-18T21:46:46.425Z,13.90
2022-08-18T21:49:14.269Z,13.80
2022-08-18T21:51:46.328Z,13.90
2022-08-18T21:54:18.730Z,13.90
2022-08-18T21:56:45.549Z,13.90
2022-08-18T21:59:17.392Z,13.80
2022-08-18T22:02:02.138Z,13.60
2022-08-18T22:04:28.815Z,13.80
2022-08-18T22:06:57.485Z,13.80
2022-08-18T22:09:44.991Z,13.80
2022-08-18T22:12:52.044Z,13.80
2022-08-18T22:15:21.879Z,13.70
2022-08-18T22:17:59.599Z,13.80
2022-08-18T22:20:46.413Z,13.80
2022-08-18T22:23:31.581Z,13.80
2022-08-18T22:26:27.408Z,13.80
2022-08-18T22:28:55.447Z,13.60
2022-08-18T22:31:23.177Z,13.60
2022-08-18T22:33:50.772Z,13.60
2022-08-18T22:36:19.917Z,13.60
2022-08-18T22:38:47.133Z,13.50
2022-08-18T22:41:14.422Z,13.60
2022-08-18T22:43:41.055Z,13.60
2022-08-18T22:46:07.716Z,13.50
2022-08-18T22:48:34.354Z,13.50
2022-08-18T22:51:01.005Z,13.50
2022-08-18T22:53:28.558Z,13.40
2022-08-18T22:55:57.317Z,13.40
2022-08-18T22:58:28.321Z,13.40
2022-08-18T23:00:56.182Z,13.40
2022-08-18T23:03:32.287Z,13.30
2022-08-18T23:06:11.695Z,13.30
2022-08-18T23:08:55.663Z,13.30
2022-08-18T23:11:23.686Z,13.30
2022-08-18T23:13:50.406Z,13.40
2022-08-18T23:16:31.848Z,13.40
2022-08-18T23:19:02.039Z,13.50
2022-08-18T23:21:34.349Z,13.40
2022-08-18T23:24:06.721Z,13.40
2022-08-18T23:26:34.174Z,13.40
2022-08-18T23:29:01.227Z,13.40
2022-08-18T23:31:27.879Z,13.20
2022-08-18T23:33:54.504Z,13.20
2022-08-18T23:36:21.163Z,13.20
2022-08-18T23:38:47.837Z,13.10
2022-08-18T23:41:14.941Z,12.90
2022-08-18T23:43:42.387Z,12.90
2022-08-18T23:46:29.060Z,13.00
2022-08-18T23:48:57.269Z,13.00
2022-08-18T23:51:29.126Z,13.00
2022-08-18T23:54:00.381Z,13.00
2022-08-18T23:56:30.650Z,13.00
2022-08-18T23:58:57.563Z,12.90
